createdAt,value
2022-09-10T00:01:32.044Z,100879.13
2022-09-10T00:04:00.520Z,100855.75
2022-09-10T00:06:30.018Z,100841.09
2022-09-10T00:08:59.001Z,100878.19
2022-09-10T00:11:32.402Z,100881.41
2022-09-10T00:14:02.430Z,100883.34
2022-09-10T00:16:32.873Z,100850.75
2022-09-10T00:19:02.770Z,100882.09
2022-09-10T00:21:30.523Z,100791.59
2022-09-10T00:23:59.387Z,100801.09
2022-09-10T00:26:30.841Z,100791.41
2022-09-10T00:29:02.113Z,100889.56
2022-09-10T00:31:32.032Z,100850.91
2022-09-10T00:34:01.865Z,100880.94
2022-09-10T00:36:36.923Z,100857.88
2022-09-10T00:39:07.414Z,100803.34
2022-09-10T00:41:38.286Z,100874.97
2022-09-10T00:44:41.399Z,100783.81
2022-09-10T00:47:19.582Z,100832.34
2022-09-10T00:49:51.998Z,100866.22
2022-09-10T00:52:20.032Z,100824.97
2022-09-10T00:54:48.551Z,100845.25
2022-09-10T00:57:20.912Z,100873.19
2022-09-10T00:59:54.023Z,100860.72
2022-09-10T01:02:22.033Z,100865.41
2022-09-10T01:04:51.465Z,100852.19
2022-09-10T01:07:21.544Z,100775.91
2022-09-10T01:09:49.764Z,100843.41
2022-09-10T01:12:38.633Z,100849.53
2022-09-10T01:15:15.950Z,100848.72
2022-09-10T01:18:13.339Z,100847.59
2022-09-10T01:20:56.769Z,100824.69
2022-09-10T01:23:57.723Z,100838.84
2022-09-10T01:26:59.132Z,100827.75
2022-09-10T01:29:48.867Z,100846.19
2022-09-10T01:32:26.968Z,100811.53
2022-09-10T01:35:18.156Z,100846.66
2022-09-10T01:37:59.886Z,100861.09
2022-09-10T01:40:31.264Z,100718.06
2022-09-10T01:43:08.804Z,100822.00
2022-09-10T01:46:12.584Z,100845.06
2022-09-10T01:49:05.908Z,100847.00
2022-09-10T01:52:00.910Z,100851.69
2022-09-10T01:54:50.568Z,100850.88
2022-09-10T01:57:39.353Z,100848.94
2022-09-10T02:00:10.565Z,100861.09
2022-09-10T02:02:54.094Z,100849.75
2022-09-10T02:05:24.145Z,100849.63
2022-09-10T02:08:02.369Z,100853.97
2022-09-10T02:10:31.105Z,100851.56
2022-09-10T02:12:59.474Z,100848.47
2022-09-10T02:15:43.995Z,100850.88
2022-09-10T02:18:22.457Z,100838.78
2022-09-10T02:20:56.081Z,100832.81
2022-09-10T02:23:31.686Z,100800.91
2022-09-10T02:26:03.222Z,100839.53
2022-09-10T02:28:31.936Z,100814.06
2022-09-10T02:31:00.136Z,100804.53
2022-09-10T02:33:28.438Z,100813.25
2022-09-10T02:35:56.568Z,100835.50
2022-09-10T02:38:31.803Z,100635.44
2022-09-10T02:40:59.677Z,100745.81
2022-09-10T02:43:28.231Z,100829.53
2022-09-10T02:46:00.519Z,100791.16
2022-09-10T02:48:28.547Z,100809.63
2022-09-10T02:50:58.303Z,100793.03
2022-09-10T02:53:28.535Z,100656.91
2022-09-10T02:55:59.161Z,100726.16
2022-09-10T02:58:26.975Z,100830.31
2022-09-10T03:01:09.252Z,100688.03
2022-09-10T03:03:37.930Z,100754.00
2022-09-10T03:06:06.384Z,100649.22
2022-09-10T03:08:35.142Z,100811.84
2022-09-10T03:11:04.613Z,100801.34
2022-09-10T03:13:34.875Z,100650.50
2022-09-10T03:16:04.324Z,100758.50
2022-09-10T03:18:35.463Z,100782.09
2022-09-10T03:21:20.297Z,100814.47
2022-09-10T03:23:50.228Z,100821.59
2022-09-10T03:26:25.516Z,100789.03
2022-09-10T03:28:55.816Z,100823.09
2022-09-10T03:31:27.427Z,100815.13
2022-09-10T03:33:56.503Z,100751.56
2022-09-10T03:36:24.189Z,100819.84
2022-09-10T03:38:52.087Z,100816.75
2022-09-10T03:41:20.491Z,100817.56
2022-09-10T03:43:49.694Z,100808.81
2022-09-10T03:46:17.331Z,100772.94
2022-09-10T03:48:55.124Z,100817.16
2022-09-10T03:51:27.678Z,100818.78
2022-09-10T03:53:59.225Z,100554.56
2022-09-10T03:56:28.178Z,100806.81
2022-09-10T03:58:57.029Z,100803.59
2022-09-10T04:01:28.664Z,100805.69
2022-09-10T04:03:56.898Z,100822.94
2022-09-10T04:06:26.818Z,100762.94
2022-09-10T04:08:56.294Z,100745.53
2022-09-10T04:11:27.405Z,100793.25
2022-09-10T04:13:56.980Z,100821.31
2022-09-10T04:16:25.913Z,100759.22
2022-09-10T04:18:54.437Z,100727.13
2022-09-10T04:21:23.490Z,100807.75
2022-09-10T04:24:00.836Z,100812.72
2022-09-10T04:26:29.369Z,100815.81
2022-09-10T04:28:57.367Z,100818.91
2022-09-10T04:31:25.357Z,100824.09
2022-09-10T04:33:57.286Z,100741.16
2022-09-10T04:36:27.952Z,100817.78
2022-09-10T04:38:59.136Z,100785.19
2022-09-10T04:41:28.272Z,100814.22
2022-09-10T04:43:56.057Z,100798.09
2022-09-10T04:46:24.540Z,100772.28
2022-09-10T04:48:54.472Z,100750.84
2022-09-10T04:51:24.745Z,100796.69
2022-09-10T04:53:54.551Z,100806.38
2022-09-10T04:56:26.786Z,100736.81
2022-09-10T04:58:54.656Z,100803.72
2022-09-10T05:01:22.559Z,100753.19
2022-09-10T05:03:53.148Z,100808.78
2022-09-10T05:06:21.513Z,100819.38
2022-09-10T05:08:50.936Z,100802.91
2022-09-10T05:11:20.064Z,100819.72
2022-09-10T05:13:48.471Z,100749.97
2022-09-10T05:16:21.500Z,100809.66
2022-09-10T05:18:49.498Z,100773.63
2022-09-10T05:21:19.244Z,100814.13
2022-09-10T05:23:48.064Z,100779.94
2022-09-10T05:26:15.910Z,100663.63
2022-09-10T05:28:55.469Z,100822.66
2022-09-10T05:31:23.361Z,100830.94
2022-09-10T05:33:51.156Z,100772.88
2022-09-10T05:36:20.142Z,100671.59
2022-09-10T05:38:47.857Z,100540.78
2022-09-10T05:41:16.779Z,100840.81
2022-09-10T05:43:48.724Z,100747.69
2022-09-10T05:46:17.398Z,100543.69
2022-09-10T05:48:49.215Z,100657.16
2022-09-10T05:51:18.946Z,100858.97
2022-09-10T05:53:48.431Z,100848.34
2022-09-10T05:56:17.784Z,100848.63
2022-09-10T05:58:45.917Z,100852.25
2022-09-10T06:01:15.529Z,100813.78
2022-09-10T06:03:44.757Z,100838.94
2022-09-10T06:06:12.606Z,100820.22
2022-09-10T06:08:45.222Z,100863.00
2022-09-10T06:11:22.227Z,100797.84
2022-09-10T06:13:50.792Z,100868.53
2022-09-10T06:16:20.153Z,100843.19
2022-09-10T06:18:48.239Z,100873.56
2022-09-10T06:21:19.793Z,100839.66
2022-09-10T06:23:55.216Z,100827.22
2022-09-10T06:26:24.748Z,100854.19
2022-09-10T06:28:56.961Z,100881.00
2022-09-10T06:31:25.339Z,100853.75
2022-09-10T06:33:54.413Z,100878.25
2022-09-10T06:36:25.567Z,100883.75
2022-09-10T06:38:55.793Z,100879.09
2022-09-10T06:41:25.596Z,100882.66
2022-09-10T06:44:04.810Z,100890.91
2022-09-10T06:49:31.800Z,100858.75
2022-09-10T06:51:59.545Z,100862.97
2022-09-10T06:54:27.853Z,100883.19
2022-09-10T06:57:01.516Z,100896.44
2022-09-10T06:59:34.826Z,100845.75
2022-09-10T07:02:03.825Z,100892.91
2022-09-10T07:04:32.365Z,100878.88
2022-09-10T07:07:00.888Z,100801.59
2022-09-10T07:09:29.140Z,100832.09
2022-09-10T07:11:59.412Z,100874.72
2022-09-10T07:14:30.486Z,100883.63
2022-09-10T07:16:59.113Z,100865.38
2022-09-10T07:19:30.835Z,100887.69
2022-09-10T07:21:58.621Z,100884.19
2022-09-10T07:24:27.812Z,100906.28
2022-09-10T07:27:07.914Z,100892.41
2022-09-10T07:29:36.922Z,100897.75
2022-09-10T07:32:07.348Z,100896.13
2022-09-10T07:34:37.960Z,100891.31
2022-09-10T07:37:07.821Z,100840.59
2022-09-10T07:39:35.902Z,100882.53
2022-09-10T07:42:04.551Z,100915.81
2022-09-10T07:44:36.410Z,100848.97
2022-09-10T07:47:04.077Z,100906.88
2022-09-10T07:49:33.413Z,100861.53
2022-09-10T07:52:02.200Z,100872.50
2022-09-10T07:54:35.953Z,100891.19
2022-09-10T07:57:06.544Z,100840.69
2022-09-10T07:59:35.502Z,100824.22
2022-09-10T08:02:06.663Z,100910.94
2022-09-10T08:04:37.752Z,100854.97
2022-09-10T08:07:09.902Z,100906.56
2022-09-10T08:09:39.690Z,100921.75
2022-09-10T08:12:16.650Z,100722.78
2022-09-10T08:14:45.913Z,100563.72
2022-09-10T08:17:14.126Z,100606.25
2022-09-10T08:19:45.124Z,100817.63
2022-09-10T08:22:14.424Z,100731.16
2022-09-10T08:24:52.081Z,100932.31
2022-09-10T08:27:20.052Z,100908.19
2022-09-10T08:29:48.778Z,100850.06
2022-09-10T08:32:17.113Z,100914.84
2022-09-10T08:34:46.806Z,100891.84
2022-09-10T08:37:16.476Z,100876.84
2022-09-10T08:39:44.628Z,100919.06
2022-09-10T08:42:23.008Z,100828.81
2022-09-10T08:45:15.419Z,100889.94
2022-09-10T08:47:54.503Z,100922.75
2022-09-10T08:50:36.037Z,100893.03
2022-09-10T08:53:37.537Z,100930.63
2022-09-10T08:56:14.812Z,100872.50
2022-09-10T08:58:45.113Z,100935.94
2022-09-10T09:01:40.785Z,100943.88
2022-09-10T09:04:18.775Z,100872.16
2022-09-10T09:06:58.956Z,100944.66
2022-09-10T09:09:26.707Z,100915.28
2022-09-10T09:12:15.804Z,100934.78
2022-09-10T09:14:51.173Z,100935.75
2022-09-10T09:17:51.634Z,100943.34
2022-09-10T09:20:45.528Z,100889.91
2022-09-10T09:23:22.158Z,100941.25
2022-09-10T09:26:13.875Z,100951.59
2022-09-10T09:29:05.539Z,100952.41
2022-09-10T09:31:40.831Z,100926.59
2022-09-10T09:34:38.837Z,100955.78
2022-09-10T09:37:21.651Z,100947.97
2022-09-10T09:40:22.625Z,100929.56
2022-09-10T09:43:33.410Z,100864.56
2022-09-10T09:46:02.168Z,100864.09
2022-09-10T09:48:39.088Z,100938.97
2022-09-10T09:51:11.896Z,100780.22
2022-09-10T09:53:42.342Z,100947.03
2022-09-10T09:56:20.230Z,100944.28
2022-09-10T09:58:49.911Z,100947.84
2022-09-10T10:01:29.114Z,100930.09
2022-09-10T10:04:05.646Z,100950.41
2022-09-10T10:06:45.382Z,100918.91
2022-09-10T10:09:24.198Z,100896.19
2022-09-10T10:12:06.063Z,100938.56
2022-09-10T10:14:41.654Z,100923.09
2022-09-10T10:17:42.191Z,100904.34
2022-09-10T10:20:17.045Z,100926.47
2022-09-10T10:22:48.644Z,100930.94
2022-09-10T10:25:53.091Z,100931.84
2022-09-10T10:28:24.958Z,100925.88
2022-09-10T10:31:00.185Z,100906.97
2022-09-10T10:33:31.402Z,100861.78
2022-09-10T10:36:08.139Z,100919.41
2022-09-10T10:38:40.530Z,100911.66
2022-09-10T10:41:40.234Z,100924.16
2022-09-10T10:44:27.549Z,100907.63
2022-09-10T10:47:04.352Z,100911.19
2022-09-10T10:50:01.308Z,100911.53
2022-09-10T10:52:47.755Z,100912.34
2022-09-10T10:55:34.256Z,100907.28
2022-09-10T10:58:05.739Z,100895.44
2022-09-10T11:01:08.213Z,100894.72
2022-09-10T11:04:13.609Z,100896.81
2022-09-10T11:06:47.728Z,100858.09
2022-09-10T11:09:51.959Z,100873.09
2022-09-10T11:12:30.244Z,100887.06
2022-09-10T11:15:10.372Z,100839.63
2022-09-10T11:17:54.110Z,100874.00
2022-09-10T11:20:35.664Z,100881.47
2022-09-10T11:23:12.702Z,100884.50
2022-09-10T11:26:01.714Z,100890.47
2022-09-10T11:28:37.149Z,100797.25
2022-09-10T11:31:30.824Z,100848.19
2022-09-10T11:34:04.809Z,100865.28
2022-09-10T11:36:55.968Z,100839.63
2022-09-10T11:39:41.772Z,100836.25
2022-09-10T11:42:51.194Z,100850.34
2022-09-10T11:45:40.598Z,100865.19
2022-09-10T11:48:11.789Z,100883.69
2022-09-10T11:50:45.555Z,100861.53
2022-09-10T11:53:19.982Z,100861.53
2022-09-10T11:56:06.925Z,100861.03
2022-09-10T11:58:49.487Z,100855.41
2022-09-10T12:01:46.383Z,100831.81
2022-09-10T12:04:27.001Z,100851.16
2022-09-10T12:07:27.003Z,100847.38
2022-09-10T12:10:39.838Z,100840.25
2022-09-10T12:13:15.277Z,100839.56
2022-09-10T12:15:53.272Z,100844.75
2022-09-10T12:18:25.822Z,100783.44
2022-09-10T12:21:07.448Z,100822.22
2022-09-10T12:23:42.691Z,100822.22
2022-09-10T12:26:19.915Z,100807.53
2022-09-10T12:28:53.843Z,100820.53
2022-09-10T12:31:22.525Z,100803.28
2022-09-10T12:33:51.245Z,100810.75
2022-09-10T12:36:28.089Z,100811.72
2022-09-10T12:39:24.997Z,100809.59
2022-09-10T12:41:55.548Z,100807.94
2022-09-10T12:44:49.787Z,100801.78
2022-09-10T12:47:17.360Z,100801.06
2022-09-10T12:49:57.343Z,100800.41
2022-09-10T12:52:32.451Z,100796.50
2022-09-10T12:55:23.675Z,100793.75
2022-09-10T12:58:24.179Z,100772.69
2022-09-10T13:00:54.716Z,100783.28
2022-09-10T13:03:27.112Z,100741.38
2022-09-10T13:05:57.791Z,100778.00
2022-09-10T13:08:34.855Z,100753.41
2022-09-10T13:11:22.577Z,100761.09
2022-09-10T13:14:00.833Z,100689.53
2022-09-10T13:16:28.491Z,100746.38
2022-09-10T13:19:18.017Z,100745.25
2022-09-10T13:21:45.740Z,100744.78
2022-09-10T13:24:36.735Z,100745.44
2022-09-10T13:27:13.432Z,100739.47
2022-09-10T13:29:45.243Z,100701.63
2022-09-10T13:32:40.008Z,100735.81
2022-09-10T13:35:41.750Z,100729.81
2022-09-10T13:38:35.868Z,100728.56
2022-09-10T13:41:21.756Z,100720.28
2022-09-10T13:44:08.255Z,100728.69
2022-09-10T13:46:41.742Z,100661.50
2022-09-10T13:49:47.590Z,100724.88
2022-09-10T13:52:20.618Z,100644.50
2022-09-10T13:54:53.485Z,100677.25
2022-09-10T13:57:40.958Z,100701.44
2022-09-10T14:00:20.187Z,100660.41
2022-09-10T14:02:53.713Z,100676.72
2022-09-10T14:05:30.422Z,100705.69
2022-09-10T14:08:06.517Z,100685.22
2022-09-10T14:10:48.757Z,100715.22
2022-09-10T14:13:22.593Z,100708.91
2022-09-10T14:15:52.331Z,100697.31
2022-09-10T14:18:23.265Z,100663.88
2022-09-10T14:20:51.015Z,100703.38
2022-09-10T14:23:19.190Z,100633.38
2022-09-10T14:25:46.936Z,100618.00
2022-09-10T14:28:27.326Z,100614.66
2022-09-10T14:31:20.932Z,100696.03
2022-09-10T14:33:49.050Z,100612.84
2022-09-10T14:36:33.630Z,100679.13
2022-09-10T14:39:01.165Z,100685.81
2022-09-10T14:41:32.190Z,100689.38
2022-09-10T14:44:39.151Z,100681.53
2022-09-10T14:47:10.335Z,100687.06
2022-09-10T14:49:41.616Z,100660.66
2022-09-10T14:52:11.490Z,100618.94
2022-09-10T14:54:39.411Z,100670.72
2022-09-10T14:57:14.054Z,100654.44
2022-09-10T14:59:44.558Z,100658.09
2022-09-10T15:02:27.427Z,100670.94
2022-09-10T15:04:55.545Z,100660.63
2022-09-10T15:07:23.918Z,100646.47
2022-09-10T15:09:53.522Z,100587.44
2022-09-10T15:12:28.187Z,100602.13
2022-09-10T15:14:57.282Z,100629.81
2022-09-10T15:17:25.044Z,100649.56
2022-09-10T15:19:55.457Z,100653.94
2022-09-10T15:22:28.890Z,100647.97
2022-09-10T15:25:09.642Z,100603.75
2022-09-10T15:27:38.032Z,100636.94
2022-09-10T15:30:06.993Z,100592.50
2022-09-10T15:32:34.934Z,100636.94
2022-09-10T15:35:04.663Z,100641.03
2022-09-10T15:37:32.868Z,100634.50
2022-09-10T15:40:01.472Z,100544.56
2022-09-10T15:42:31.300Z,100634.59
2022-09-10T15:44:59.101Z,100636.91
2022-09-10T15:47:27.145Z,100627.03
2022-09-10T15:49:54.954Z,100614.16
2022-09-10T15:52:22.849Z,100632.41
2022-09-10T15:54:51.044Z,100628.38
2022-09-10T15:57:19.291Z,100589.38
2022-09-10T15:59:47.494Z,100647.63
2022-09-10T16:02:15.328Z,100624.75
2022-09-10T16:04:43.302Z,100614.41
2022-09-10T16:07:11.172Z,100605.34
2022-09-10T16:09:38.907Z,100580.53
2022-09-10T16:12:06.717Z,100555.16
2022-09-10T16:14:34.640Z,100586.03
2022-09-10T16:17:02.658Z,100596.72
2022-09-10T16:19:30.352Z,100573.63
2022-09-10T16:21:58.117Z,100607.63
2022-09-10T16:24:25.739Z,100592.94
2022-09-10T16:26:53.424Z,100590.31
2022-09-10T16:29:22.012Z,100625.41
2022-09-10T16:31:50.340Z,100570.41
2022-09-10T16:34:20.617Z,100585.09
2022-09-10T16:36:49.370Z,100544.94
2022-09-10T16:39:18.135Z,100615.88
2022-09-10T16:41:47.964Z,100615.53
2022-09-10T16:44:17.573Z,100616.69
2022-09-10T16:46:47.613Z,100575.34
2022-09-10T16:49:18.472Z,100602.69
2022-09-10T16:51:47.837Z,100614.28
2022-09-10T16:54:21.095Z,100610.59
2022-09-10T16:56:50.744Z,100617.72
2022-09-10T16:59:21.513Z,100599.25
2022-09-10T17:01:52.033Z,100620.16
2022-09-10T17:04:28.259Z,100625.69
2022-09-10T17:06:57.618Z,100613.34
2022-09-10T17:09:25.805Z,100609.34
2022-09-10T17:11:53.467Z,100573.31
2022-09-10T17:14:21.449Z,100596.63
2022-09-10T17:16:50.078Z,100552.84
2022-09-10T17:19:21.347Z,100604.66
2022-09-10T17:21:51.612Z,100602.13
2022-09-10T17:24:22.124Z,100613.28
2022-09-10T17:26:51.038Z,100547.56
2022-09-10T17:29:24.254Z,100580.34
2022-09-10T17:31:52.347Z,100622.94
2022-09-10T17:34:21.667Z,100589.84
2022-09-10T17:36:49.527Z,100551.25
2022-09-10T17:39:17.630Z,100633.25
2022-09-10T17:41:45.644Z,100596.41
2022-09-10T17:44:13.864Z,100559.28
2022-09-10T17:46:43.009Z,100635.56
2022-09-10T17:49:14.220Z,100639.13
2022-09-10T17:51:43.952Z,100616.97
2022-09-10T17:54:45.982Z,100608.00
2022-09-10T17:57:17.279Z,100438.94
2022-09-10T17:59:49.441Z,100500.28
2022-09-10T18:02:18.468Z,100623.50
2022-09-10T18:04:50.364Z,100629.50
2022-09-10T18:07:18.506Z,100597.88
2022-09-10T18:09:49.200Z,100635.34
2022-09-10T18:12:16.973Z,100580.75
2022-09-10T18:14:44.577Z,100614.47
2022-09-10T18:17:12.520Z,100387.84
2022-09-10T18:19:40.841Z,100521.38
2022-09-10T18:22:08.636Z,100619.28
2022-09-10T18:24:36.841Z,100624.31
2022-09-10T18:27:07.823Z,100628.22
2022-09-10T18:29:41.573Z,100447.31
2022-09-10T18:32:09.933Z,100587.78
2022-09-10T18:34:40.719Z,100622.38
2022-09-10T18:37:08.670Z,100599.03
2022-09-10T18:39:36.947Z,100594.22
2022-09-10T18:42:06.523Z,100640.06
2022-09-10T18:44:36.762Z,100609.63
2022-09-10T18:47:17.746Z,100569.41
2022-09-10T18:49:46.606Z,100557.34
2022-09-10T18:52:14.780Z,100596.75
2022-09-10T18:54:46.637Z,100577.31
2022-09-10T18:57:14.896Z,100593.63
2022-09-10T18:59:42.527Z,100649.81
2022-09-10T19:02:12.657Z,100646.59
2022-09-10T19:04:54.642Z,100627.31
2022-09-10T19:07:28.435Z,100662.94
2022-09-10T19:09:56.413Z,100661.78
2022-09-10T19:12:24.209Z,100621.44
2022-09-10T19:14:52.363Z,100666.13
2022-09-10T19:17:22.275Z,100670.41
2022-09-10T19:19:50.427Z,100625.50
2022-09-10T19:22:18.486Z,100639.50
2022-09-10T19:24:55.918Z,100643.06
2022-09-10T19:27:24.450Z,100672.81
2022-09-10T19:29:52.315Z,100679.13
2022-09-10T19:32:20.290Z,100650.28
2022-09-10T19:34:52.231Z,100642.94
2022-09-10T19:37:21.135Z,100681.53
2022-09-10T19:39:49.306Z,100669.25
2022-09-10T19:42:17.545Z,100670.88
2022-09-10T19:44:50.539Z,100660.06
2022-09-10T19:47:19.850Z,100684.19
2022-09-10T19:49:48.461Z,100627.97
2022-09-10T19:52:22.319Z,100601.56
2022-09-10T19:54:51.936Z,100394.66
2022-09-10T19:57:20.545Z,100689.28
2022-09-10T19:59:48.583Z,100539.13
2022-09-10T20:02:16.853Z,100669.38
2022-09-10T20:04:45.063Z,100638.59
2022-09-10T20:07:17.143Z,100557.47
2022-09-10T20:09:45.084Z,100650.31
2022-09-10T20:12:16.593Z,100700.50
2022-09-10T20:14:44.303Z,100650.88
2022-09-10T20:17:12.727Z,100651.66
2022-09-10T20:19:40.938Z,100693.06
2022-09-10T20:22:08.707Z,100656.06
2022-09-10T20:24:47.340Z,100640.31
2022-09-10T20:27:18.081Z,100359.31
2022-09-10T20:29:46.607Z,100688.56
2022-09-10T20:32:17.318Z,100701.00
2022-09-10T20:34:59.339Z,100471.28
2022-09-10T20:37:27.834Z,100709.63
2022-09-10T20:39:57.962Z,100526.41
2022-09-10T20:42:28.183Z,100384.94
2022-09-10T20:44:55.885Z,100687.75
2022-09-10T20:47:25.052Z,100647.56
2022-09-10T20:49:55.162Z,100665.13
2022-09-10T20:52:23.520Z,100668.00
2022-09-10T20:54:51.861Z,100689.81
2022-09-10T20:57:21.297Z,100618.81
2022-09-10T20:59:50.369Z,100666.03
2022-09-10T21:02:18.124Z,100554.69
2022-09-10T21:04:45.839Z,100690.16
2022-09-10T21:07:13.481Z,100686.63
2022-09-10T21:09:41.395Z,100611.44
2022-09-10T21:12:11.570Z,100679.13
2022-09-10T21:14:39.540Z,100629.28
2022-09-10T21:17:09.901Z,100683.84
2022-09-10T21:19:37.572Z,100683.84
2022-09-10T21:22:05.277Z,100664.66
2022-09-10T21:24:32.897Z,100640.75
2022-09-10T21:27:00.720Z,100652.13
2022-09-10T21:29:28.327Z,100673.41
2022-09-10T21:31:57.092Z,100687.75
2022-09-10T21:34:24.883Z,100671.19
2022-09-10T21:36:52.513Z,100695.59
2022-09-10T21:39:20.327Z,100611.69
2022-09-10T21:41:51.121Z,100665.47
2022-09-10T21:44:22.131Z,100697.66
2022-09-10T21:46:50.373Z,100703.16
2022-09-10T21:49:18.983Z,100653.88
2022-09-10T21:51:46.992Z,100685.00
2022-09-10T21:54:18.802Z,100660.28
2022-09-10T21:56:50.528Z,100634.88
2022-09-10T21:59:18.926Z,100648.22
2022-09-10T22:01:48.603Z,100688.22
2022-09-10T22:04:22.116Z,100688.22
2022-09-10T22:06:50.952Z,100672.81
2022-09-10T22:09:20.128Z,100673.16
2022-09-10T22:11:50.395Z,100654.09
2022-09-10T22:14:24.841Z,100652.13
2022-09-10T22:16:53.645Z,100670.88
2022-09-10T22:19:27.593Z,100551.47
2022-09-10T22:21:59.717Z,100701.09
2022-09-10T22:24:27.599Z,100689.84
2022-09-10T22:26:58.943Z,100535.38
2022-09-10T22:29:27.504Z,100665.47
2022-09-10T22:31:55.585Z,100690.06
2022-09-10T22:34:23.229Z,100659.50
2022-09-10T22:36:51.177Z,100693.63
2022-09-10T22:39:21.339Z,100691.69
2022-09-10T22:41:50.741Z,100686.97
2022-09-10T22:44:20.265Z,100512.06
2022-09-10T22:46:48.340Z,100622.94
2022-09-10T22:49:16.497Z,100657.44
2022-09-10T22:51:45.707Z,100689.38
2022-09-10T22:54:13.970Z,100692.13
2022-09-10T22:56:42.264Z,100703.16
2022-09-10T22:59:14.528Z,100700.41
2022-09-10T23:01:43.585Z,100698.44
2022-09-10T23:04:11.579Z,100615.47
2022-09-10T23:06:39.685Z,100698.09
2022-09-10T23:09:11.538Z,100682.03
2022-09-10T23:11:40.632Z,100650.19
2022-09-10T23:14:13.220Z,100684.06
2022-09-10T23:16:43.422Z,100692.56
2022-09-10T23:19:20.088Z,100658.47
2022-09-10T23:21:51.325Z,100658.81
2022-09-10T23:24:22.148Z,100668.56
2022-09-10T23:26:50.847Z,100661.78
2022-09-10T23:29:18.754Z,100681.53
2022-09-10T23:31:48.024Z,100685.44
2022-09-10T23:34:18.316Z,100640.88
2022-09-10T23:36:48.301Z,100687.06
2022-09-10T23:39:21.240Z,100619.94
2022-09-10T23:41:54.907Z,100675.94
2022-09-10T23:44:23.347Z,100666.28
2022-09-10T23:46:51.041Z,100617.19
2022-09-10T23:49:18.742Z,100648.59
2022-09-10T23:51:46.427Z,100687.84
2022-09-10T23:54:13.941Z,100631.44
2022-09-10T23:56:42.022Z,100682.34
2022-09-10T23:59:10.145Z,100685.44
